sensor_id;sensor_type;location;lat;lon;timestamp;pressure;altitude;pressure_sealevel;temperature;humidity
11041;BME280;5573;49.592;8.662;2023-11-19T00:00:23;99828.13;;;7.48;100.00
11041;BME280;5573;49.592;8.662;2023-11-19T00:02:51;99816.72;;;7.48;100.00
11041;BME280;5573;49.592;8.662;2023-11-19T00:05:19;99829.59;;;7.51;100.00
11041;BME280;5573;49.592;8.662;2023-11-19T00:07:47;99819.81;;;7.51;100.00
11041;BME280;5573;49.592;8.662;2023-11-19T00:10:16;99816.38;;;7.57;100.00
11041;BME280;5573;49.592;8.662;2023-11-19T00:12:48;99804.00;;;7.64;100.00
11041;BME280;5573;49.592;8.662;2023-11-19T00:15:17;99819.91;;;7.64;100.00
11041;BME280;5573;49.592;8.662;2023-11-19T00:17:47;99802.16;;;7.65;100.00
11041;BME280;5573;49.592;8.662;2023-11-19T00:20:17;99797.69;;;7.65;100.00
11041;BME280;5573;49.592;8.662;2023-11-19T00:22:45;99792.63;;;7.70;100.00
11041;BME280;5573;49.592;8.662;2023-11-19T00:25:16;99787.31;;;7.70;100.00
11041;BME280;5573;49.592;8.662;2023-11-19T00:27:44;99788.56;;;7.74;100.00
11041;BME280;5573;49.592;8.662;2023-11-19T00:30:14;99784.91;;;7.75;100.00
11041;BME280;5573;49.592;8.662;2023-11-19T00:32:43;99777.38;;;7.79;100.00
11041;BME280;5573;49.592;8.662;2023-11-19T00:35:12;99780.28;;;7.84;100.00
11041;BME280;5573;49.592;8.662;2023-11-19T00:37:41;99779.66;;;7.82;100.00
11041;BME280;5573;49.592;8.662;2023-11-19T00:40:12;99779.47;;;7.84;100.00
11041;BME280;5573;49.592;8.662;2023-11-19T00:42:40;99789.69;;;7.87;100.00
11041;BME280;5573;49.592;8.662;2023-11-19T00:45:08;99800.09;;;7.88;100.00
11041;BME280;5573;49.592;8.662;2023-11-19T00:47:40;99800.09;;;7.88;100.00
11041;BME280;5573;49.592;8.662;2023-11-19T00:50:08;99801.78;;;7.96;100.00
11041;BME280;5573;49.592;8.662;2023-11-19T00:52:38;99801.00;;;8.02;100.00
11041;BME280;5573;49.592;8.662;2023-11-19T00:55:06;99791.41;;;8.01;100.00
11041;BME280;5573;49.592;8.662;2023-11-19T00:57:35;99778.78;;;8.03;100.00
11041;BME280;5573;49.592;8.662;2023-11-19T01:00:04;99778.97;;;8.01;100.00
11041;BME280;5573;49.592;8.662;2023-11-19T01:02:36;99790.78;;;7.99;100.00
11041;BME280;5573;49.592;8.662;2023-11-19T01:05:08;99790.22;;;8.03;100.00
11041;BME280;5573;49.592;8.662;2023-11-19T01:07:36;99789.84;;;8.13;100.00
11041;BME280;5573;49.592;8.662;2023-11-19T01:10:05;99785.97;;;8.15;100.00
11041;BME280;5573;49.592;8.662;2023-11-19T01:12:34;99780.63;;;8.09;100.00
11041;BME280;5573;49.592;8.662;2023-11-19T01:15:05;99781.88;;;8.13;100.00
11041;BME280;5573;49.592;8.662;2023-11-19T01:17:33;99775.97;;;8.11;100.00
11041;BME280;5573;49.592;8.662;2023-11-19T01:20:02;99770.03;;;8.09;100.00
11041;BME280;5573;49.592;8.662;2023-11-19T01:22:34;99779.06;;;8.21;100.00
11041;BME280;5573;49.592;8.662;2023-11-19T01:25:02;99771.38;;;8.26;100.00
11041;BME280;5573;49.592;8.662;2023-11-19T01:27:32;99773.38;;;8.24;100.00
11041;BME280;5573;49.592;8.662;2023-11-19T01:30:01;99777.69;;;8.25;100.00
11041;BME280;5573;49.592;8.662;2023-11-19T01:32:30;99786.47;;;8.25;100.00
11041;BME280;5573;49.592;8.662;2023-11-19T01:34:58;99787.88;;;8.21;100.00
11041;BME280;5573;49.592;8.662;2023-11-19T01:37:26;99776.81;;;8.18;100.00
11041;BME280;5573;49.592;8.662;2023-11-19T01:39:56;99786.47;;;8.25;100.00
11041;BME280;5573;49.592;8.662;2023-11-19T01:42:25;99788.06;;;8.26;100.00
11041;BME280;5573;49.592;8.662;2023-11-19T01:44:58;99795.09;;;8.34;100.00
11041;BME280;5573;49.592;8.662;2023-11-19T01:47:26;99788.34;;;8.32;100.00
11041;BME280;5573;49.592;8.662;2023-11-19T01:49:55;99768.97;;;8.38;100.00
11041;BME280;5573;49.592;8.662;2023-11-19T01:52:25;99761.22;;;8.36;100.00
11041;BME280;5573;49.592;8.662;2023-11-19T01:54:55;99753.66;;;8.33;100.00
11041;BME280;5573;49.592;8.662;2023-11-19T01:57:24;99766.09;;;8.33;100.00
11041;BME280;5573;49.592;8.662;2023-11-19T01:59:52;99765.53;;;8.37;100.00
11041;BME280;5573;49.592;8.662;2023-11-19T02:02:21;99754.28;;;8.35;100.00
11041;BME280;5573;49.592;8.662;2023-11-19T02:04:51;99746.97;;;8.44;100.00
11041;BME280;5573;49.592;8.662;2023-11-19T02:07:19;99750.22;;;8.46;100.00
11041;BME280;5573;49.592;8.662;2023-11-19T02:09:47;99736.34;;;8.44;100.00
11041;BME280;5573;49.592;8.662;2023-11-19T02:12:18;99720.41;;;8.37;100.00
11041;BME280;5573;49.592;8.662;2023-11-19T02:14:47;99650.88;;;8.14;100.00
11041;BME280;5573;49.592;8.662;2023-11-19T02:17:27;99684.91;;;8.45;100.00
11041;BME280;5573;49.592;8.662;2023-11-19T02:19:56;99682.44;;;8.50;100.00
11041;BME280;5573;49.592;8.662;2023-11-19T02:22:26;99694.13;;;8.55;100.00
11041;BME280;5573;49.592;8.662;2023-11-19T02:24:59;99683.69;;;8.60;100.00
11041;BME280;5573;49.592;8.662;2023-11-19T02:27:45;99692.06;;;8.57;100.00
11041;BME280;5573;49.592;8.662;2023-11-19T02:30:15;99704.31;;;8.58;100.00
11041;BME280;5573;49.592;8.662;2023-11-19T02:32:43;99699.25;;;8.63;100.00
11041;BME280;5573;49.592;8.662;2023-11-19T02:35:11;99703.09;;;8.67;100.00
11041;BME280;5573;49.592;8.662;2023-11-19T02:37:40;99709.25;;;8.68;100.00
11041;BME280;5573;49.592;8.662;2023-11-19T02:40:08;99691.88;;;8.65;100.00
11041;BME280;5573;49.592;8.662;2023-11-19T02:42:36;99697.00;;;8.67;100.00
11041;BME280;5573;49.592;8.662;2023-11-19T02:45:07;99682.50;;;8.69;100.00
11041;BME280;5573;49.592;8.662;2023-11-19T02:47:37;99682.91;;;8.73;100.00
11041;BME280;5573;49.592;8.662;2023-11-19T02:50:06;99678.81;;;8.70;100.00
11041;BME280;5573;49.592;8.662;2023-11-19T02:52:41;99681.06;;;8.73;100.00
11041;BME280;5573;49.592;8.662;2023-11-19T02:55:10;99660.84;;;8.72;100.00
11041;BME280;5573;49.592;8.662;2023-11-19T02:57:39;99669.03;;;8.77;100.00
11041;BME280;5573;49.592;8.662;2023-11-19T03:00:15;99663.91;;;8.69;100.00
11041;BME280;5573;49.592;8.662;2023-11-19T03:02:44;99640.00;;;8.69;100.00
11041;BME280;5573;49.592;8.662;2023-11-19T03:05:13;99658.59;;;8.83;100.00
11041;BME280;5573;49.592;8.662;2023-11-19T03:07:43;99643.72;;;8.82;100.00
11041;BME280;5573;49.592;8.662;2023-11-19T03:10:12;99645.31;;;8.83;100.00
11041;BME280;5573;49.592;8.662;2023-11-19T03:12:42;99648.19;;;8.88;100.00
11041;BME280;5573;49.592;8.662;2023-11-19T03:15:10;99644.94;;;8.86;100.00
11041;BME280;5573;49.592;8.662;2023-11-19T03:17:40;99641.88;;;8.89;100.00
11041;BME280;5573;49.592;8.662;2023-11-19T03:20:10;99662.47;;;8.87;100.00
11041;BME280;5573;49.592;8.662;2023-11-19T03:22:41;99661.69;;;8.93;100.00
11041;BME280;5573;49.592;8.662;2023-11-19T03:25:10;99655.75;;;8.91;100.00
11041;BME280;5573;49.592;8.662;2023-11-19T03:27:39;99655.34;;;8.87;100.00
11041;BME280;5573;49.592;8.662;2023-11-19T03:30:09;99651.44;;;8.90;100.00
11041;BME280;5573;49.592;8.662;2023-11-19T03:32:37;99651.06;;;8.93;100.00
11041;BME280;5573;49.592;8.662;2023-11-19T03:35:08;99651.47;;;8.96;100.00
11041;BME280;5573;49.592;8.662;2023-11-19T03:37:37;99638.38;;;8.95;100.00
11041;BME280;5573;49.592;8.662;2023-11-19T03:40:07;99650.84;;;9.01;100.00
11041;BME280;5573;49.592;8.662;2023-11-19T03:42:35;99650.25;;;8.99;100.00
11041;BME280;5573;49.592;8.662;2023-11-19T03:45:03;99641.25;;;9.00;100.00
11041;BME280;5573;49.592;8.662;2023-11-19T03:47:31;99652.47;;;9.02;100.00
11041;BME280;5573;49.592;8.662;2023-11-19T03:50:00;99646.97;;;9.10;100.00
11041;BME280;5573;49.592;8.662;2023-11-19T03:52:29;99637.16;;;9.10;100.00
11041;BME280;5573;49.592;8.662;2023-11-19T03:54:57;99642.06;;;9.13;100.00
11041;BME280;5573;49.592;8.662;2023-11-19T03:57:25;99646.16;;;9.09;100.00
11041;BME280;5573;49.592;8.662;2023-11-19T03:59:53;99654.31;;;9.14;100.00
11041;BME280;5573;49.592;8.662;2023-11-19T04:02:22;99651.84;;;9.19;100.00
11041;BME280;5573;49.592;8.662;2023-11-19T04:04:50;99643.69;;;9.21;100.00
11041;BME280;5573;49.592;8.662;2023-11-19T04:07:18;99643.28;;;9.24;100.00
11041;BME280;5573;49.592;8.662;2023-11-19T04:09:48;99629.56;;;9.27;100.00
11041;BME280;5573;49.592;8.662;2023-11-19T04:12:16;99632.63;;;9.24;100.00
11041;BME280;5573;49.592;8.662;2023-11-19T04:14:45;99640.59;;;9.24;100.00
11041;BME280;5573;49.592;8.662;2023-11-19T04:17:13;99644.06;;;9.31;100.00
11041;BME280;5573;49.592;8.662;2023-11-19T04:19:41;99633.06;;;9.34;100.00
11041;BME280;5573;49.592;8.662;2023-11-19T04:22:10;99636.91;;;9.32;100.00
11041;BME280;5573;49.592;8.662;2023-11-19T04:24:38;99635.50;;;9.36;100.00
11041;BME280;5573;49.592;8.662;2023-11-19T04:27:08;99642.44;;;9.37;100.00
11041;BME280;5573;49.592;8.662;2023-11-19T04:29:37;99642.84;;;9.40;100.00
11041;BME280;5573;49.592;8.662;2023-11-19T04:32:06;99634.66;;;9.35;100.00
11041;BME280;5573;49.592;8.662;2023-11-19T04:34:34;99635.69;;;9.47;100.00
11041;BME280;5573;49.592;8.662;2023-11-19T04:37:04;99642.44;;;9.43;100.00
11041;BME280;5573;49.592;8.662;2023-11-19T04:39:35;99634.44;;;9.43;100.00
11041;BME280;5573;49.592;8.662;2023-11-19T04:42:04;99627.69;;;9.47;100.00
11041;BME280;5573;49.592;8.662;2023-11-19T04:44:34;99633.00;;;9.47;100.00
11041;BME280;5573;49.592;8.662;2023-11-19T04:47:03;99633.22;;;9.52;100.00
11041;BME280;5573;49.592;8.662;2023-11-19T04:49:31;99635.06;;;9.52;100.00
11041;BME280;5573;49.592;8.662;2023-11-19T04:52:00;99626.25;;;9.51;100.00
11041;BME280;5573;49.592;8.662;2023-11-19T04:54:28;99616.88;;;9.49;100.00
11041;BME280;5573;49.592;8.662;2023-11-19T04:56:55;99620.31;;;9.56;100.00
11041;BME280;5573;49.592;8.662;2023-11-19T04:59:23;99612.94;;;9.58;100.00
11041;BME280;5573;49.592;8.662;2023-11-19T05:01:53;99634.19;;;9.64;100.00
11041;BME280;5573;49.592;8.662;2023-11-19T05:04:21;99636.25;;;9.62;100.00
11041;BME280;5573;49.592;8.662;2023-11-19T05:06:49;99632.34;;;9.65;100.00
11041;BME280;5573;49.592;8.662;2023-11-19T05:09:17;99641.78;;;9.67;100.00
11041;BME280;5573;49.592;8.662;2023-11-19T05:11:45;99648.13;;;9.66;100.00
11041;BME280;5573;49.592;8.662;2023-11-19T05:14:16;99647.28;;;9.66;100.00
11041;BME280;5573;49.592;8.662;2023-11-19T05:16:45;99596.00;;;9.39;100.00
11041;BME280;5573;49.592;8.662;2023-11-19T05:19:15;99632.31;;;9.71;100.00
11041;BME280;5573;49.592;8.662;2023-11-19T05:21:43;99644.84;;;9.71;100.00
11041;BME280;5573;49.592;8.662;2023-11-19T05:24:11;99636.63;;;9.72;100.00
11041;BME280;5573;49.592;8.662;2023-11-19T05:26:39;99638.06;;;9.75;100.00
11041;BME280;5573;49.592;8.662;2023-11-19T05:29:08;99642.16;;;9.78;100.00
11041;BME280;5573;49.592;8.662;2023-11-19T05:31:35;99628.41;;;9.81;100.00
11041;BME280;5573;49.592;8.662;2023-11-19T05:34:05;99628.00;;;9.84;100.00
11041;BME280;5573;49.592;8.662;2023-11-19T05:36:35;99629.44;;;9.86;100.00
11041;BME280;5573;49.592;8.662;2023-11-19T05:39:03;99622.88;;;9.89;100.00
11041;BME280;5573;49.592;8.662;2023-11-19T05:41:32;99617.31;;;9.90;100.00
11041;BME280;5573;49.592;8.662;2023-11-19T05:44:00;99606.47;;;9.92;100.00
11041;BME280;5573;49.592;8.662;2023-11-19T05:46:28;99606.09;;;9.88;100.00
11041;BME280;5573;49.592;8.662;2023-11-19T05:48:56;99591.53;;;9.91;100.00
11041;BME280;5573;49.592;8.662;2023-11-19T05:51:24;99608.28;;;9.98;100.00
11041;BME280;5573;49.592;8.662;2023-11-19T05:53:54;99605.41;;;9.99;100.00
11041;BME280;5573;49.592;8.662;2023-11-19T05:56:23;99605.22;;;10.01;100.00
11041;BME280;5573;49.592;8.662;2023-11-19T05:58:51;99592.69;;;10.01;100.00
11041;BME280;5573;49.592;8.662;2023-11-19T06:01:19;99595.38;;;10.01;100.00
11041;BME280;5573;49.592;8.662;2023-11-19T06:03:47;99585.31;;;10.10;100.00
11041;BME280;5573;49.592;8.662;2023-11-19T06:06:17;99578.13;;;10.10;100.00
11041;BME280;5573;49.592;8.662;2023-11-19T06:08:45;99600.25;;;10.11;100.00
11041;BME280;5573;49.592;8.662;2023-11-19T06:11:15;99593.50;;;10.08;100.00
11041;BME280;5573;49.592;8.662;2023-11-19T06:13:45;99566.13;;;9.95;100.00
11041;BME280;5573;49.592;8.662;2023-11-19T06:16:14;99597.75;;;10.23;100.00
11041;BME280;5573;49.592;8.662;2023-11-19T06:18:42;99594.28;;;10.22;100.00
11041;BME280;5573;49.592;8.662;2023-11-19T06:21:11;99597.97;;;10.21;100.00
11041;BME280;5573;49.592;8.662;2023-11-19T06:23:39;99603.63;;;10.31;100.00
11041;BME280;5573;49.592;8.662;2023-11-19T06:26:07;99601.00;;;10.25;100.00
11041;BME280;5573;49.592;8.662;2023-11-19T06:28:37;99603.22;;;10.34;100.00
11041;BME280;5573;49.592;8.662;2023-11-19T06:31:05;99605.69;;;10.29;100.00
11041;BME280;5573;49.592;8.662;2023-11-19T06:33:33;99615.91;;;10.32;100.00
11041;BME280;5573;49.592;8.662;2023-11-19T06:36:01;99611.41;;;10.33;100.00
11041;BME280;5573;49.592;8.662;2023-11-19T06:38:29;99612.06;;;10.28;100.00
11041;BME280;5573;49.592;8.662;2023-11-19T06:40:57;99609.78;;;10.32;100.00
11041;BME280;5573;49.592;8.662;2023-11-19T06:43:25;99614.47;;;10.36;100.00
11041;BME280;5573;49.592;8.662;2023-11-19T06:46:15;99623.75;;;10.27;100.00
11041;BME280;5573;49.592;8.662;2023-11-19T06:48:43;99622.44;;;10.36;100.00
11041;BME280;5573;49.592;8.662;2023-11-19T06:51:11;99623.72;;;10.34;100.00
11041;BME280;5573;49.592;8.662;2023-11-19T06:53:40;99644.13;;;10.40;100.00
11041;BME280;5573;49.592;8.662;2023-11-19T06:56:17;99640.47;;;10.41;100.00
11041;BME280;5573;49.592;8.662;2023-11-19T06:58:45;99648.06;;;10.37;100.00
11041;BME280;5573;49.592;8.662;2023-11-19T07:01:16;99644.75;;;10.42;100.00
11041;BME280;5573;49.592;8.662;2023-11-19T07:03:45;99662.16;;;10.44;100.00
11041;BME280;5573;49.592;8.662;2023-11-19T07:06:14;99648.19;;;10.49;100.00
11041;BME280;5573;49.592;8.662;2023-11-19T07:08:42;99657.41;;;10.53;100.00
11041;BME280;5573;49.592;8.662;2023-11-19T07:11:11;99662.94;;;10.51;100.00
11041;BME280;5573;49.592;8.662;2023-11-19T07:13:40;99654.72;;;10.53;100.00
11041;BME280;5573;49.592;8.662;2023-11-19T07:16:09;99650.19;;;10.53;100.00
11041;BME280;5573;49.592;8.662;2023-11-19T07:18:39;99668.06;;;10.53;100.00
11041;BME280;5573;49.592;8.662;2023-11-19T07:21:06;99666.97;;;10.60;100.00
11041;BME280;5573;49.592;8.662;2023-11-19T07:23:37;99661.59;;;10.67;100.00
11041;BME280;5573;49.592;8.662;2023-11-19T07:26:06;99609.31;;;10.41;100.00
11041;BME280;5573;49.592;8.662;2023-11-19T07:28:35;99663.78;;;10.77;100.00
11041;BME280;5573;49.592;8.662;2023-11-19T07:31:04;99657.88;;;10.75;100.00
11041;BME280;5573;49.592;8.662;2023-11-19T07:33:34;99663.97;;;10.82;100.00
11041;BME280;5573;49.592;8.662;2023-11-19T07:36:04;99657.81;;;10.81;100.00
11041;BME280;5573;49.592;8.662;2023-11-19T07:38:32;99663.16;;;10.81;100.00
11041;BME280;5573;49.592;8.662;2023-11-19T07:41:00;99663.56;;;10.78;100.00
11041;BME280;5573;49.592;8.662;2023-11-19T07:43:28;99670.13;;;10.82;100.00
11041;BME280;5573;49.592;8.662;2023-11-19T07:45:56;99659.50;;;10.76;100.00
11041;BME280;5573;49.592;8.662;2023-11-19T07:48:26;99655.78;;;10.77;100.00
11041;BME280;5573;49.592;8.662;2023-11-19T07:50:54;99667.22;;;10.84;100.00
11041;BME280;5573;49.592;8.662;2023-11-19T07:53:23;99655.84;;;10.95;100.00
11041;BME280;5573;49.592;8.662;2023-11-19T07:55:51;99657.28;;;10.97;100.00
11041;BME280;5573;49.592;8.662;2023-11-19T07:58:19;99674.91;;;10.98;100.00
11041;BME280;5573;49.592;8.662;2023-11-19T08:00:47;99669.53;;;11.05;100.00
11041;BME280;5573;49.592;8.662;2023-11-19T08:03:14;99674.03;;;11.04;100.00
11041;BME280;5573;49.592;8.662;2023-11-19T08:05:43;99675.06;;;11.03;100.00
11041;BME280;5573;49.592;8.662;2023-11-19T08:08:12;99678.94;;;11.07;100.00
11041;BME280;5573;49.592;8.662;2023-11-19T08:10:41;99678.56;;;11.04;100.00
11041;BME280;5573;49.592;8.662;2023-11-19T08:13:10;99674.44;;;11.08;100.00
11041;BME280;5573;49.592;8.662;2023-11-19T08:15:38;99679.91;;;11.13;100.00
11041;BME280;5573;49.592;8.662;2023-11-19T08:18:07;99688.72;;;11.13;100.00
11041;BME280;5573;49.592;8.662;2023-11-19T08:20:36;99696.97;;;11.12;100.00
11041;BME280;5573;49.592;8.662;2023-11-19T08:23:03;99704.13;;;11.11;100.00
11041;BME280;5573;49.592;8.662;2023-11-19T08:25:31;99704.94;;;11.12;100.00
11041;BME280;5573;49.592;8.662;2023-11-19T08:28:02;99684.59;;;11.17;100.00
11041;BME280;5573;49.592;8.662;2023-11-19T08:30:30;99698.16;;;11.16;100.00
11041;BME280;5573;49.592;8.662;2023-11-19T08:32:58;99690.97;;;11.16;100.00
11041;BME280;5573;49.592;8.662;2023-11-19T08:35:29;99686.16;;;11.25;100.00
11041;BME280;5573;49.592;8.662;2023-11-19T08:37:57;99696.84;;;11.25;100.00
11041;BME280;5573;49.592;8.662;2023-11-19T08:40:25;99693.97;;;11.27;100.00
11041;BME280;5573;49.592;8.662;2023-11-19T08:42:53;99686.53;;;11.29;100.00
11041;BME280;5573;49.592;8.662;2023-11-19T08:45:22;99677.38;;;11.43;100.00
11041;BME280;5573;49.592;8.662;2023-11-19T08:47:50;99674.78;;;11.61;100.00
11041;BME280;5573;49.592;8.662;2023-11-19T08:50:18;99678.09;;;11.56;100.00
11041;BME280;5573;49.592;8.662;2023-11-19T08:52:46;99678.22;;;11.61;100.00
11041;BME280;5573;49.592;8.662;2023-11-19T08:55:14;99677.19;;;11.62;100.00
11041;BME280;5573;49.592;8.662;2023-11-19T08:57:42;99685.88;;;11.58;100.00
11041;BME280;5573;49.592;8.662;2023-11-19T09:00:10;99684.19;;;11.63;100.00
11041;BME280;5573;49.592;8.662;2023-11-19T09:02:42;99696.22;;;11.73;100.00
11041;BME280;5573;49.592;8.662;2023-11-19T09:05:10;99704.25;;;11.66;100.00
11041;BME280;5573;49.592;8.662;2023-11-19T09:07:39;99699.16;;;11.64;100.00
11041;BME280;5573;49.592;8.662;2023-11-19T09:10:08;99703.06;;;11.62;100.00
11041;BME280;5573;49.592;8.662;2023-11-19T09:12:37;99704.69;;;11.63;100.00
11041;BME280;5573;49.592;8.662;2023-11-19T09:15:05;99711.88;;;11.62;100.00
11041;BME280;5573;49.592;8.662;2023-11-19T09:17:34;99709.97;;;11.69;100.00
11041;BME280;5573;49.592;8.662;2023-11-19T09:20:03;99714.47;;;11.76;100.00
11041;BME280;5573;49.592;8.662;2023-11-19T09:22:50;99712.31;;;11.84;100.00
11041;BME280;5573;49.592;8.662;2023-11-19T09:25:18;99714.94;;;11.91;100.00
11041;BME280;5573;49.592;8.662;2023-11-19T09:27:46;99704.63;;;12.12;100.00
11041;BME280;5573;49.592;8.662;2023-11-19T09:30:14;99705.66;;;12.11;100.00
11041;BME280;5573;49.592;8.662;2023-11-19T09:32:42;99704.84;;;12.11;100.00
11041;BME280;5573;49.592;8.662;2023-11-19T09:35:11;99691.03;;;12.14;100.00
11041;BME280;5573;49.592;8.662;2023-11-19T09:37:41;99686.97;;;12.11;100.00
11041;BME280;5573;49.592;8.662;2023-11-19T09:40:09;99689.56;;;12.00;100.00
11041;BME280;5573;49.592;8.662;2023-11-19T09:42:43;99704.25;;;12.09;100.00
11041;BME280;5573;49.592;8.662;2023-11-19T09:45:14;99700.25;;;12.00;100.00
11041;BME280;5573;49.592;8.662;2023-11-19T09:47:43;99701.13;;;11.94;100.00
11041;BME280;5573;49.592;8.662;2023-11-19T09:50:16;99703.66;;;11.89;100.00
11041;BME280;5573;49.592;8.662;2023-11-19T09:52:44;99695.94;;;11.81;100.00
11041;BME280;5573;49.592;8.662;2023-11-19T09:55:12;99697.56;;;11.82;100.00
11041;BME280;5573;49.592;8.662;2023-11-19T09:57:40;99688.97;;;11.80;100.00
11041;BME280;5573;49.592;8.662;2023-11-19T10:00:12;99682.00;;;11.79;100.00
11041;BME280;5573;49.592;8.662;2023-11-19T10:02:43;99682.38;;;11.82;100.00
11041;BME280;5573;49.592;8.662;2023-11-19T10:05:14;99673.53;;;11.82;100.00
11041;BME280;5573;49.592;8.662;2023-11-19T10:07:42;99675.78;;;11.85;100.00
11041;BME280;5573;49.592;8.662;2023-11-19T10:10:12;99672.28;;;11.84;100.00
11041;BME280;5573;49.592;8.662;2023-11-19T10:12:44;99675.19;;;11.83;100.00
11041;BME280;5573;49.592;8.662;2023-11-19T10:15:20;99680.66;;;11.88;100.00
11041;BME280;5573;49.592;8.662;2023-11-19T10:17:49;99675.84;;;11.78;100.00
11041;BME280;5573;49.592;8.662;2023-11-19T10:20:18;99669.25;;;11.81;100.00
11041;BME280;5573;49.592;8.662;2023-11-19T10:22:46;99669.09;;;11.94;100.00
11041;BME280;5573;49.592;8.662;2023-11-19T10:25:24;99668.81;;;12.02;100.00
11041;BME280;5573;49.592;8.662;2023-11-19T10:27:53;99669.09;;;12.12;100.00
11041;BME280;5573;49.592;8.662;2023-11-19T10:30:21;99678.94;;;12.11;100.00
11041;BME280;5573;49.592;8.662;2023-11-19T10:33:06;99676.81;;;12.20;98.37
11041;BME280;5573;49.592;8.662;2023-11-19T10:35:50;99675.59;;;12.34;98.07
11041;BME280;5573;49.592;8.662;2023-11-19T10:38:21;99685.19;;;12.53;99.40
11041;BME280;5573;49.592;8.662;2023-11-19T10:40:50;99676.88;;;12.61;95.54
11041;BME280;5573;49.592;8.662;2023-11-19T10:43:18;99677.34;;;12.70;96.85
11041;BME280;5573;49.592;8.662;2023-11-19T10:45:48;99690.19;;;12.80;93.98
11041;BME280;5573;49.592;8.662;2023-11-19T10:48:16;99669.59;;;13.10;95.12
11041;BME280;5573;49.592;8.662;2023-11-19T10:50:49;99677.75;;;13.38;95.08
11041;BME280;5573;49.592;8.662;2023-11-19T10:53:21;99677.75;;;13.38;93.92
11041;BME280;5573;49.592;8.662;2023-11-19T10:55:54;99684.03;;;13.55;95.13
11041;BME280;5573;49.592;8.662;2023-11-19T10:58:28;99669.94;;;13.60;93.98
11041;BME280;5573;49.592;8.662;2023-11-19T11:01:01;99664.03;;;13.58;93.01
11041;BME280;5573;49.592;8.662;2023-11-19T11:03:39;99664.72;;;13.53;90.97
11041;BME280;5573;49.592;8.662;2023-11-19T11:06:09;99655.53;;;13.61;90.40
11041;BME280;5573;49.592;8.662;2023-11-19T11:08:38;99660.50;;;13.81;89.77
11041;BME280;5573;49.592;8.662;2023-11-19T11:11:07;99665.22;;;14.02;87.85
11041;BME280;5573;49.592;8.662;2023-11-19T11:13:37;99660.88;;;14.24;87.27
11041;BME280;5573;49.592;8.662;2023-11-19T11:16:07;99662.94;;;14.22;86.98
11041;BME280;5573;49.592;8.662;2023-11-19T11:18:35;99659.13;;;14.18;85.39
11041;BME280;5573;49.592;8.662;2023-11-19T11:21:06;99658.38;;;13.94;87.19
11041;BME280;5573;49.592;8.662;2023-11-19T11:23:52;99640.00;;;13.75;87.32
11041;BME280;5573;49.592;8.662;2023-11-19T11:26:35;99643.88;;;13.55;87.03
11041;BME280;5573;49.592;8.662;2023-11-19T11:29:11;99638.44;;;13.50;87.28
11041;BME280;5573;49.592;8.662;2023-11-19T11:31:50;99636.78;;;13.49;87.44
11041;BME280;5573;49.592;8.662;2023-11-19T11:34:42;99637.13;;;13.41;87.88
11041;BME280;5573;49.592;8.662;2023-11-19T11:37:18;99640.84;;;13.29;88.58
11041;BME280;5573;49.592;8.662;2023-11-19T11:39:47;99637.03;;;13.13;90.23
11041;BME280;5573;49.592;8.662;2023-11-19T11:42:33;99638.28;;;13.10;90.21
11041;BME280;5573;49.592;8.662;2023-11-19T11:45:02;99637.72;;;13.20;90.09
11041;BME280;5573;49.592;8.662;2023-11-19T11:50:49;99642.97;;;13.50;88.92
11041;BME280;5573;49.592;8.662;2023-11-19T11:53:18;99636.19;;;13.47;88.41
11041;BME280;5573;49.592;8.662;2023-11-19T11:55:55;99637.00;;;13.36;90.40
11041;BME280;5573;49.592;8.662;2023-11-19T11:58:30;99638.09;;;13.35;90.39
11041;BME280;5573;49.592;8.662;2023-11-19T12:01:01;99638.19;;;13.40;89.87
11041;BME280;5573;49.592;8.662;2023-11-19T12:03:32;99632.94;;;13.45;90.00
11041;BME280;5573;49.592;8.662;2023-11-19T12:06:01;99638.31;;;13.45;90.94
11041;BME280;5573;49.592;8.662;2023-11-19T12:08:30;99636.44;;;13.46;91.30
11041;BME280;5573;49.592;8.662;2023-11-19T12:11:00;99634.72;;;13.40;91.58
11041;BME280;5573;49.592;8.662;2023-11-19T12:13:46;99629.91;;;13.19;93.42
11041;BME280;5573;49.592;8.662;2023-11-19T12:16:14;99631.78;;;13.18;91.10
11041;BME280;5573;49.592;8.662;2023-11-19T12:18:43;99623.50;;;13.08;90.93
11041;BME280;5573;49.592;8.662;2023-11-19T12:21:11;99618.63;;;13.05;91.57
11041;BME280;5573;49.592;8.662;2023-11-19T12:23:45;99612.78;;;12.96;91.13
11041;BME280;5573;49.592;8.662;2023-11-19T12:26:31;99621.63;;;12.97;91.10
11041;BME280;5573;49.592;8.662;2023-11-19T12:29:00;99613.47;;;13.03;88.62
11041;BME280;5573;49.592;8.662;2023-11-19T12:31:35;99613.38;;;12.98;88.24
11041;BME280;5573;49.592;8.662;2023-11-19T12:34:07;99613.78;;;13.14;88.53
11041;BME280;5573;49.592;8.662;2023-11-19T12:36:40;99617.31;;;13.07;88.42
11041;BME280;5573;49.592;8.662;2023-11-19T12:39:11;99606.53;;;13.14;86.11
11041;BME280;5573;49.592;8.662;2023-11-19T12:41:52;99611.44;;;13.17;86.06
11041;BME280;5573;49.592;8.662;2023-11-19T12:44:21;99612.13;;;13.13;86.96
11041;BME280;5573;49.592;8.662;2023-11-19T12:47:02;99606.31;;;13.27;85.79
11041;BME280;5573;49.592;8.662;2023-11-19T12:49:30;99612.50;;;13.28;84.52
11041;BME280;5573;49.592;8.662;2023-11-19T12:51:59;99587.13;;;13.19;83.77
11041;BME280;5573;49.592;8.662;2023-11-19T12:54:34;99608.31;;;13.32;83.45
11041;BME280;5573;49.592;8.662;2023-11-19T12:57:04;99611.75;;;13.09;85.44
11041;BME280;5573;49.592;8.662;2023-11-19T12:59:32;99604.69;;;13.15;83.92
11041;BME280;5573;49.592;8.662;2023-11-19T13:02:00;99603.44;;;13.17;84.89
11041;BME280;5573;49.592;8.662;2023-11-19T13:04:30;99596.31;;;13.11;84.92
11041;BME280;5573;49.592;8.662;2023-11-19T13:06:58;99597.38;;;13.10;85.01
11041;BME280;5573;49.592;8.662;2023-11-19T13:09:28;99599.13;;;13.16;82.69
11041;BME280;5573;49.592;8.662;2023-11-19T13:11:57;99597.91;;;13.00;84.73
11041;BME280;5573;49.592;8.662;2023-11-19T13:14:37;99604.41;;;12.93;85.21
11041;BME280;5573;49.592;8.662;2023-11-19T13:17:05;99595.22;;;12.89;85.82
11041;BME280;5573;49.592;8.662;2023-11-19T13:19:33;99596.84;;;12.90;85.45
11041;BME280;5573;49.592;8.662;2023-11-19T13:22:01;99595.94;;;12.96;85.30
11041;BME280;5573;49.592;8.662;2023-11-19T13:24:29;99601.44;;;13.13;86.17